New Yoshino — JG5527 — position and weather

sailwx.info

Track history (hours):
 
Tides and Currents Weather Stations Pressure Air Temp Water Temp Dewpoint Dewpoint Depression Visibility Wind Speed Wind Dir Waves Ship Positions

New Yoshino

Last reported at 2017-May-22 22:32 UTC. Time now 2017-May-22 23:03 UTC.
Position N 35°29' E 139°56'.

Length 102 m; draft 6.2 m.

Type: Tanker. MMSI: 431300724.

Date/timePositionNaut miles runAvg speedWind from/ knotsBaromVisibWave heightAir tempDewpointWater temp
2017-May-22 22:32N 35°29' E 139°56'0 0.0
2017-May-22 19:53N 35°29' E 139°56'0 0.1
2017-May-22 19:29N 35°29' E 139°56'0 0.2
2017-May-22 19:00N 35°29' E 139°56'4 8.6
2017-May-22 18:31N 35°27' E 139°51'713.0
2017-May-22 18:00N 35°22' E 139°45'611.7
2017-May-22 17:30N 35°17' E 139°46'612.6
2017-May-22 17:00N 35°10' E 139°47'713.2
2017-May-22 16:30N 35°05' E 139°43'713.3
2017-May-22 16:00N 35°01' E 139°36'714.0
2017-May-22 15:29N 34°56' E 139°29'22911.6
2017-May-21 19:43N 34°01' E 134°59'312.8
2017-May-21 19:30N 34°04' E 134°59'612.9
2017-May-21 19:01N 34°10' E 134°59'712.9
2017-May-21 18:28N 34°17' E 134°59'612.5
2017-May-21 18:01N 34°23' E 134°60'713.1
2017-May-21 17:30N 34°29' E 135°02'612.6
2017-May-21 17:00N 34°35' E 135°03'611.3
2017-May-21 16:30N 34°36' E 134°56'1113.9
2017-May-21 15:44N 34°32' E 134°44'12 0.3
2017-May-20 00:38N 34°37' E 134°57'212.3
2017-May-20 00:28N 34°37' E 134°59'510.8
2017-May-20 00:00N 34°35' E 135°05'612.4
2017-May-19 23:30N 34°29' E 135°04'713.4
2017-May-19 22:59N 34°22' E 135°02'713.2
2017-May-19 22:30N 34°16' E 134°59'713.8
2017-May-19 22:00N 34°09' E 134°60'714.0
2017-May-19 21:30N 34°03' E 134°60'246 7.7
2017-May-18 13:30N 35°13' E 139°46'612.0
2017-May-18 13:00N 35°19' E 139°44'611.8
2017-May-18 12:30N 35°24' E 139°43'510.8
2017-May-18 12:00N 35°28' E 139°48'1 1.5
2017-May-18 11:25N 35°29' E 139°49'0 0.0
2017-May-18 10:58N 35°29' E 139°49'0 0.1
2017-May-18 10:28N 35°29' E 139°49'0 0.0
2017-May-18 09:58N 35°29' E 139°49'0 0.0
2017-May-18 09:28N 35°29' E 139°49'0 0.0
2017-May-18 08:58N 35°29' E 139°49'0 0.0
2017-May-18 08:28N 35°29' E 139°49'0 0.0
2017-May-18 07:58N 35°29' E 139°49'0 0.0
2017-May-18 07:28N 35°29' E 139°49'0 0.0
2017-May-18 06:55N 35°29' E 139°49'0 0.1
2017-May-18 06:29N 35°29' E 139°49'3 6.5
2017-May-18 06:00N 35°30' E 139°45'0 0.4
2017-May-18 05:30N 35°30' E 139°45'0 0.0
2017-May-18 05:00N 35°30' E 139°45'0 0.0
2017-May-18 04:30N 35°30' E 139°45'0 0.0
2017-May-18 04:00N 35°30' E 139°45'0 0.0
2017-May-18 03:30N 35°30' E 139°45'0 0.0
2017-May-18 02:59N 35°30' E 139°45'0 0.0
2017-May-18 02:29N 35°30' E 139°45'0 0.0
2017-May-18 02:00N 35°30' E 139°45'2 3.2
2017-May-18 01:31N 35°30' E 139°43'4 8.1
2017-May-18 01:00N 35°26' E 139°44'2 4.6
2017-May-18 00:30N 35°23' E 139°44'0 0.0
2017-May-17 23:57N 35°23' E 139°44'0 0.0
2017-May-17 23:30N 35°23' E 139°44'4 8.0
2017-May-17 23:01N 35°19' E 139°44'611.7
2017-May-17 22:30N 35°14' E 139°47'  
2017-May-14 09:08N 34°52' E 139°46'212.3
2017-May-14 09:00N 34°53' E 139°45'612.7
2017-May-14 08:30N 34°59' E 139°42'713.6
2017-May-14 08:00N 35°06' E 139°44'713.7
2017-May-14 07:30N 35°12' E 139°46'612.1
2017-May-14 07:01N 35°18' E 139°44'612.1
2017-May-14 06:30N 35°24' E 139°43'612.9
2017-May-14 06:00N 35°28' E 139°49'611.9
2017-May-14 05:31N 35°30' E 139°56'4 0.5
2017-May-13 22:10N 35°29' E 140°00'2 8.6
2017-May-13 21:57N 35°30' E 139°58'3 6.8
2017-May-13 21:30N 35°29' E 139°55'0 0.0
2017-May-13 21:00N 35°29' E 139°55'0 0.0
2017-May-13 20:30N 35°29' E 139°55'0 0.0
2017-May-13 20:00N 35°29' E 139°55'0 0.0
2017-May-13 19:30N 35°29' E 139°55'0 0.0
2017-May-13 19:00N 35°29' E 139°55'0 0.1
2017-May-13 18:30N 35°29' E 139°55'0 0.1
2017-May-13 18:00N 35°29' E 139°55'0 0.1
2017-May-13 17:30N 35°29' E 139°55'0 0.1
2017-May-13 17:00N 35°29' E 139°55'0 0.0
2017-May-13 16:30N 35°29' E 139°55'0 0.0
2017-May-13 16:00N 35°29' E 139°55'0 0.0
2017-May-13 15:30N 35°29' E 139°55'0 0.1
2017-May-13 15:00N 35°29' E 139°55'0 0.1
2017-May-13 14:30N 35°29' E 139°55'0 0.0
2017-May-13 13:30N 35°29' E 139°55'0 0.0
2017-May-13 13:00N 35°29' E 139°55'0 0.0
2017-May-13 12:30N 35°29' E 139°55'2 3.8
2017-May-13 12:00N 35°30' E 139°57'5 0.7
2017-May-13 04:49N 35°32' E 140°02'3 9.6
2017-May-13 04:30N 35°31' E 139°59'4 8.8
2017-May-13 04:00N 35°29' E 139°54'0 0.3
2017-May-13 03:30N 35°29' E 139°54'0 0.0
2017-May-13 03:00N 35°29' E 139°54'0 0.0
2017-May-13 02:30N 35°29' E 139°54'0 0.0
2017-May-13 01:57N 35°29' E 139°54'0 0.1
2017-May-13 01:30N 35°29' E 139°54'0 0.0
2017-May-13 01:00N 35°29' E 139°54'0 0.1
2017-May-13 00:27N 35°29' E 139°54'0 0.1
2017-May-13 00:00N 35°29' E 139°54'0 0.0
2017-May-12 23:30N 35°29' E 139°54'0 0.1
2017-May-12 23:00N 35°29' E 139°54'  
Track history (hours):
 
Tides and Currents Weather Stations Pressure Air Temp Water Temp Dewpoint Dewpoint Depression Visibility Wind Speed Wind Dir Waves Ship Positions

New Yoshino

Last reported at 2017-May-22 22:32 UTC. Time now 2017-May-22 23:03 UTC.
Position N 35°29' E 139°56'.

Length 102 m; draft 6.2 m.

Type: Tanker. MMSI: 431300724.

Date/timePositionNaut miles runAvg speedWind from/ knotsBaromVisibWave heightAir tempDewpointWater temp
2017-May-22 22:32N 35°29' E 139°56'0 0.0
2017-May-22 19:53N 35°29' E 139°56'0 0.1
2017-May-22 19:29N 35°29' E 139°56'0 0.2
2017-May-22 19:00N 35°29' E 139°56'4 8.6
2017-May-22 18:31N 35°27' E 139°51'713.0
2017-May-22 18:00N 35°22' E 139°45'611.7
2017-May-22 17:30N 35°17' E 139°46'612.6
2017-May-22 17:00N 35°10' E 139°47'713.2
2017-May-22 16:30N 35°05' E 139°43'713.3
2017-May-22 16:00N 35°01' E 139°36'714.0
2017-May-22 15:29N 34°56' E 139°29'22911.6
2017-May-21 19:43N 34°01' E 134°59'312.8
2017-May-21 19:30N 34°04' E 134°59'612.9
2017-May-21 19:01N 34°10' E 134°59'712.9
2017-May-21 18:28N 34°17' E 134°59'612.5
2017-May-21 18:01N 34°23' E 134°60'713.1
2017-May-21 17:30N 34°29' E 135°02'612.6
2017-May-21 17:00N 34°35' E 135°03'611.3
2017-May-21 16:30N 34°36' E 134°56'1113.9
2017-May-21 15:44N 34°32' E 134°44'12 0.3
2017-May-20 00:38N 34°37' E 134°57'212.3
2017-May-20 00:28N 34°37' E 134°59'510.8
2017-May-20 00:00N 34°35' E 135°05'612.4
2017-May-19 23:30N 34°29' E 135°04'713.4
2017-May-19 22:59N 34°22' E 135°02'713.2
2017-May-19 22:30N 34°16' E 134°59'713.8
2017-May-19 22:00N 34°09' E 134°60'714.0
2017-May-19 21:30N 34°03' E 134°60'246 7.7
2017-May-18 13:30N 35°13' E 139°46'612.0
2017-May-18 13:00N 35°19' E 139°44'611.8
2017-May-18 12:30N 35°24' E 139°43'510.8
2017-May-18 12:00N 35°28' E 139°48'1 1.5
2017-May-18 11:25N 35°29' E 139°49'0 0.0
2017-May-18 10:58N 35°29' E 139°49'0 0.1
2017-May-18 10:28N 35°29' E 139°49'0 0.0
2017-May-18 09:58N 35°29' E 139°49'0 0.0
2017-May-18 09:28N 35°29' E 139°49'0 0.0
2017-May-18 08:58N 35°29' E 139°49'0 0.0
2017-May-18 08:28N 35°29' E 139°49'0 0.0
2017-May-18 07:58N 35°29' E 139°49'0 0.0
2017-May-18 07:28N 35°29' E 139°49'0 0.0
2017-May-18 06:55N 35°29' E 139°49'0 0.1
2017-May-18 06:29N 35°29' E 139°49'3 6.5
2017-May-18 06:00N 35°30' E 139°45'0 0.4
2017-May-18 05:30N 35°30' E 139°45'0 0.0
2017-May-18 05:00N 35°30' E 139°45'0 0.0
2017-May-18 04:30N 35°30' E 139°45'0 0.0
2017-May-18 04:00N 35°30' E 139°45'0 0.0
2017-May-18 03:30N 35°30' E 139°45'0 0.0
2017-May-18 02:59N 35°30' E 139°45'0 0.0
2017-May-18 02:29N 35°30' E 139°45'0 0.0
2017-May-18 02:00N 35°30' E 139°45'2 3.2
2017-May-18 01:31N 35°30' E 139°43'4 8.1
2017-May-18 01:00N 35°26' E 139°44'2 4.6
2017-May-18 00:30N 35°23' E 139°44'0 0.0
2017-May-17 23:57N 35°23' E 139°44'0 0.0
2017-May-17 23:30N 35°23' E 139°44'4 8.0
2017-May-17 23:01N 35°19' E 139°44'611.7
2017-May-17 22:30N 35°14' E 139°47'  
2017-May-14 09:08N 34°52' E 139°46'212.3
2017-May-14 09:00N 34°53' E 139°45'612.7
2017-May-14 08:30N 34°59' E 139°42'713.6
2017-May-14 08:00N 35°06' E 139°44'713.7
2017-May-14 07:30N 35°12' E 139°46'612.1
2017-May-14 07:01N 35°18' E 139°44'612.1
2017-May-14 06:30N 35°24' E 139°43'612.9
2017-May-14 06:00N 35°28' E 139°49'611.9
2017-May-14 05:31N 35°30' E 139°56'4 0.5
2017-May-13 22:10N 35°29' E 140°00'2 8.6
2017-May-13 21:57N 35°30' E 139°58'3 6.8
2017-May-13 21:30N 35°29' E 139°55'0 0.0
2017-May-13 21:00N 35°29' E 139°55'0 0.0
2017-May-13 20:30N 35°29' E 139°55'0 0.0
2017-May-13 20:00N 35°29' E 139°55'0 0.0
2017-May-13 19:30N 35°29' E 139°55'0 0.0
2017-May-13 19:00N 35°29' E 139°55'0 0.1
2017-May-13 18:30N 35°29' E 139°55'0 0.1
2017-May-13 18:00N 35°29' E 139°55'0 0.1
2017-May-13 17:30N 35°29' E 139°55'0 0.1
2017-May-13 17:00N 35°29' E 139°55'0 0.0
2017-May-13 16:30N 35°29' E 139°55'0 0.0
2017-May-13 16:00N 35°29' E 139°55'0 0.0
2017-May-13 15:30N 35°29' E 139°55'0 0.1
2017-May-13 15:00N 35°29' E 139°55'0 0.1
2017-May-13 14:30N 35°29' E 139°55'0 0.0
2017-May-13 13:30N 35°29' E 139°55'0 0.0
2017-May-13 13:00N 35°29' E 139°55'0 0.0
2017-May-13 12:30N 35°29' E 139°55'2 3.8
2017-May-13 12:00N 35°30' E 139°57'5 0.7
2017-May-13 04:49N 35°32' E 140°02'3 9.6
2017-May-13 04:30N 35°31' E 139°59'4 8.8
2017-May-13 04:00N 35°29' E 139°54'0 0.3
2017-May-13 03:30N 35°29' E 139°54'0 0.0
2017-May-13 03:00N 35°29' E 139°54'0 0.0
2017-May-13 02:30N 35°29' E 139°54'0 0.0
2017-May-13 01:57N 35°29' E 139°54'0 0.1
2017-May-13 01:30N 35°29' E 139°54'0 0.0
2017-May-13 01:00N 35°29' E 139°54'0 0.1
2017-May-13 00:27N 35°29' E 139°54'0 0.1
2017-May-13 00:00N 35°29' E 139°54'0 0.0
2017-May-12 23:30N 35°29' E 139°54'0 0.1
2017-May-12 23:00N 35°29' E 139°54'  

Dump ship's entire track history